Time;durP1;ratioP1;P1;durP2;ratioP2;P2;SDS_P1;SDS_P2;PMS_P1;PMS_P2;Temp;Humidity;BMP_temperature;BMP_pressure;BME280_temperature;BME280_humidity;BME280_pressure;Samples;Min_cycle;Max_cycle;Signal;HPM_P1;HPM_P2
2022/06/08 00:02:00;;;;;;;2.67;1.73;;;;;;;;;;5029465;28;20038;-59
2022/06/08 00:04:47;;;;;;;2.58;1.55;;;;;;;;;;4989464;28;20074;-58
2022/06/08 00:07:35;;;;;;;2.08;1.40;;;;;;;;;;4990102;28;20062;-58
2022/06/08 00:13:02;;;;;;;1.75;1.20;;;;;;;;;;4989583;28;20030;-58
2022/06/08 00:15:49;;;;;;;2.17;1.50;;;;;;;;;;4989370;28;20138;-58
2022/06/08 00:18:44;;;;;;;3.72;2.17;;;;;;;;;;4990058;28;20513;-58
2022/06/08 00:24:19;;;;;;;4.13;2.13;;;;;;;;;;4981237;28;20030;-58
2022/06/08 00:30:17;;;;;;;;;;;;;;;;;;;;;
2022/06/08 00:42:28;;;;;;;2.15;1.40;;;;;;;;;;5001401;28;20372;-58
2022/06/08 00:45:30;;;;;;;2.67;1.60;;;;;;;;;;5012586;28;20060;-58
2022/06/08 00:48:38;;;;;;;2.08;1.48;;;;;;;;;;4964275;28;20036;-58
2022/06/08 00:53:58;;;;;;;3.25;1.58;;;;;;;;;;4991970;28;20042;-58
2022/06/08 00:56:42;;;;;;;3.47;1.92;;;;;;;;;;5047265;28;20042;-58
2022/06/08 01:05:37;;;;;;;2.70;1.65;;;;;;;;;;5048877;28;20144;-58
2022/06/08 01:08:22;;;;;;;2.63;1.67;;;;;;;;;;5049595;28;20044;-58
2022/06/08 01:17:13;;;;;;;;;;;;;;;;;;;;;
2022/06/08 01:26:25;;;;;;;2.90;1.70;;;;;;;;;;5049408;28;20032;-58
2022/06/08 01:31:54;;;;;;;1.77;1.15;;;;;;;;;;5045854;28;20041;-58
2022/06/08 01:40:47;;;;;;;3.65;2.30;;;;;;;;;;5048838;28;20048;-58
2022/06/08 01:43:32;;;;;;;2.35;1.83;;;;;;;;;;5048973;28;20026;-58
2022/06/08 01:46:11;;;;;;;3.10;1.83;;;;;;;;;;5026366;28;20033;-58
2022/06/08 01:48:56;;;;;;;2.78;1.98;;;;;;;;;;5027278;28;20033;-58
2022/06/08 01:51:47;;;;;;;2.65;1.85;;;;;;;;;;5010397;28;20036;-58
2022/06/08 01:54:41;;;;;;;2.95;1.80;;;;;;;;;;5009752;28;20054;-58
2022/06/08 02:00:22;;;;;;;5.50;2.03;;;;;;;;;;4987528;28;20039;-58
2022/06/08 02:02:52;;;;;;;;;;;;;;;;;;4987841;28;20031;-58
2022/06/08 02:08:45;;;;;;;3.38;2.30;;;;;;;;;;4911606;29;20028;-58
2022/06/08 02:11:33;;;;;;;2.58;1.90;;;;;;;;;;4988561;28;20107;-58
2022/06/08 02:17:37;;;;;;;3.40;2.50;;;;;;;;;;4970767;28;20062;-58
2022/06/08 02:20:22;;;;;;;3.33;2.28;;;;;;;;;;4988178;28;20038;-58
2022/06/08 02:22:57;;;;;;;2.65;2.05;;;;;;;;;;4988689;28;20026;-58
2022/06/08 02:25:48;;;;;;;5.35;2.40;;;;;;;;;;4965977;28;20037;-58
2022/06/08 02:28:38;;;;;;;3.15;2.13;;;;;;;;;;4988301;28;20448;-58
2022/06/08 02:31:20;;;;;;;3.08;2.17;;;;;;;;;;5032983;28;20029;-58
2022/06/08 02:36:58;;;;;;;2.85;1.52;;;;;;;;;;5048499;28;19992;-58
2022/06/08 02:39:49;;;;;;;2.53;1.67;;;;;;;;;;5048867;28;20355;-58
2022/06/08 02:42:23;;;;;;;5.55;1.90;;;;;;;;;;5048359;28;20081;-58
2022/06/08 02:45:17;;;;;;;2.92;2.00;;;;;;;;;;4997710;28;20093;-58
2022/06/08 02:48:10;;;;;;;3.42;2.33;;;;;;;;;;5048336;28;20026;-58
2022/06/08 02:50:48;;;;;;;3.20;2.22;;;;;;;;;;5048300;28;20037;-58
2022/06/08 02:53:28;;;;;;;2.38;1.83;;;;;;;;;;5047629;28;20061;-58
2022/06/08 02:56:13;;;;;;;2.87;1.93;;;;;;;;;;5029960;28;20037;-58
2022/06/08 02:59:08;;;;;;;2.95;2.13;;;;;;;;;;5048443;28;20042;-58
2022/06/08 03:02:02;;;;;;;4.00;2.28;;;;;;;;;;5047841;28;20041;-58
2022/06/08 03:04:46;;;;;;;3.20;2.22;;;;;;;;;;5047912;28;20047;-58
2022/06/08 03:07:46;;;;;;;3.22;2.42;;;;;;;;;;5047878;28;20032;-58
2022/06/08 03:10:24;;;;;;;3.75;2.47;;;;;;;;;;5048076;28;20033;-58
2022/06/08 03:16:20;;;;;;;6.80;2.88;;;;;;;;;;5026994;28;20488;-58
2022/06/08 03:19:05;;;;;;;3.63;2.30;;;;;;;;;;5047090;28;20029;-58
2022/06/08 03:27:27;;;;;;;2.95;2.33;;;;;;;;;;5047714;28;20112;-58
2022/06/08 03:30:03;;;;;;;4.05;2.47;;;;;;;;;;5047418;28;20052;-58
2022/06/08 03:35:47;;;;;;;3.45;2.83;;;;;;;;;;5033848;28;20075;-58
2022/06/08 03:38:49;;;;;;;2.53;1.98;;;;;;;;;;5033480;28;20047;-58
2022/06/08 03:41:32;;;;;;;4.80;2.28;;;;;;;;;;5048955;28;20045;-58
2022/06/08 03:44:27;;;;;;;3.40;2.50;;;;;;;;;;5033427;28;20022;-58
2022/06/08 03:47:06;;;;;;;3.10;2.13;;;;;;;;;;5034312;28;20464;-58
2022/06/08 03:49:51;;;;;;;6.53;3.03;;;;;;;;;;5034209;28;20105;-58
2022/06/08 03:52:54;;;;;;;;;;;;;;;;;;;;;
2022/06/08 03:58:34;;;;;;;6.75;2.40;;;;;;;;;;5031494;28;20033;-58
2022/06/08 04:04:30;;;;;;;3.80;2.45;;;;;;;;;;5018138;28;20248;-58
2022/06/08 04:07:23;;;;;;;7.28;2.65;;;;;;;;;;5018415;28;20507;-58
2022/06/08 04:10:25;;;;;;;2.92;1.88;;;;;;;;;;4998094;28;20057;-58
2022/06/08 04:12:58;;;;;;;2.50;1.67;;;;;;;;;;4937453;29;20452;-58
2022/06/08 04:15:47;;;;;;;4.05;2.13;;;;;;;;;;4937825;29;20502;-58
2022/06/08 04:18:34;;;;;;;4.00;2.40;;;;;;;;;;4938099;29;20036;-58
2022/06/08 04:21:01;;;;;;;3.20;2.53;;;;;;;;;;4937362;29;20445;-58
2022/06/08 04:23:51;;;;;;;;;;;;;;;;;;;;;
2022/06/08 04:26:26;;;;;;;5.07;1.90;;;;;;;;;;5034584;28;20500;-58
2022/06/08 04:32:56;;;;;;;3.05;2.03;;;;;;;;;;5036247;28;20038;-58
2022/06/08 04:35:57;;;;;;;;;;;;;;;;;;;;;
2022/06/08 04:38:30;;;;;;;3.78;1.85;;;;;;;;;;4962195;28;20265;-58
2022/06/08 04:41:22;;;;;;;2.65;1.77;;;;;;;;;;5023116;28;20064;-58
2022/06/08 04:46:54;;;;;;;4.75;1.70;;;;;;;;;;5023239;28;20033;-58
2022/06/08 04:58:49;;;;;;;2.65;1.30;;;;;;;;;;5036415;28;20391;-58
2022/06/08 05:01:28;;;;;;;4.93;2.08;;;;;;;;;;5052401;28;20044;-58
2022/06/08 05:07:31;;;;;;;;;;;;;;;;;;;;;
2022/06/08 05:13:00;;;;;;;5.60;2.13;;;;;;;;;;4994806;28;20042;-58
2022/06/08 05:15:40;;;;;;;2.95;1.70;;;;;;;;;;4978440;28;20031;-58
2022/06/08 05:21:33;;;;;;;3.72;2.10;;;;;;;;;;4899143;29;20556;-58
2022/06/08 05:24:29;;;;;;;;;;;;;;;;;;;;;
2022/06/08 05:27:24;;;;;;;5.15;1.75;;;;;;;;;;4983229;28;20034;-58
2022/06/08 05:30:21;;;;;;;3.13;1.77;;;;;;;;;;4995180;28;20054;-58
2022/06/08 05:33:00;;;;;;;2.25;1.50;;;;;;;;;;4985946;28;20038;-58
2022/06/08 05:35:37;;;;;;;2.72;1.42;;;;;;;;;;4994640;28;20563;-58
2022/06/08 05:38:22;;;;;;;3.45;1.52;;;;;;;;;;4978688;28;20469;-58
2022/06/08 05:44:10;;;;;;;3.63;2.15;;;;;;;;;;4988950;28;20034;-58
2022/06/08 05:46:54;;;;;;;3.22;1.80;;;;;;;;;;4956129;29;20049;-58
2022/06/08 05:52:43;;;;;;;4.10;1.50;;;;;;;;;;4942274;28;20086;-58
2022/06/08 05:55:30;;;;;;;2.22;1.17;;;;;;;;;;4993733;28;20057;-58
2022/06/08 06:04:35;;;;;;;2.83;1.75;;;;;;;;;;4993380;28;20033;-58
2022/06/08 06:07:17;;;;;;;2.65;1.23;;;;;;;;;;4992317;28;20038;-58
2022/06/08 06:10:10;;;;;;;3.22;1.83;;;;;;;;;;5022321;28;20038;-58
2022/06/08 06:15:39;;;;;;;;;;;;;;;;;;5004721;28;20418;-58
2022/06/08 06:18:24;;;;;;;2.58;1.70;;;;;;;;;;5016408;28;19905;-58
2022/06/08 06:21:15;;;;;;;;;;;;;;;;;;;;;
2022/06/08 06:23:53;;;;;;;2.15;1.27;;;;;;;;;;5033043;28;20044;-58
2022/06/08 06:29:38;;;;;;;2.75;1.67;;;;;;;;;;5033973;28;20085;-58
2022/06/08 06:35:56;;;;;;;2.13;1.40;;;;;;;;;;4992850;28;20147;-58
2022/06/08 06:38:51;;;;;;;3.97;1.27;;;;;;;;;;4995372;28;20030;-58
2022/06/08 06:41:32;;;;;;;3.20;1.45;;;;;;;;;;4967087;28;20443;-58
2022/06/08 06:47:42;;;;;;;3.90;1.33;;;;;;;;;;5031792;28;20040;-58
2022/06/08 06:50:14;;;;;;;4.32;1.35;;;;;;;;;;5017785;28;20489;-58
2022/06/08 06:53:05;;;;;;;2.97;1.70;;;;;;;;;;5015541;28;20037;-58
2022/06/08 07:02:16;;;;;;;3.03;1.20;;;;;;;;;;5032892;28;20083;-58
2022/06/08 07:04:59;;;;;;;2.38;1.50;;;;;;;;;;5034986;28;20037;-58
2022/06/08 07:07:50;;;;;;;5.05;1.70;;;;;;;;;;5034386;28;20529;-58
2022/06/08 07:13:28;;;;;;;2.10;1.02;;;;;;;;;;5034232;28;19912;-58
2022/06/08 07:19:20;;;;;;;6.65;1.20;;;;;;;;;;5012392;28;20526;-58
2022/06/08 07:22:04;;;;;;;4.72;1.83;;;;;;;;;;5034311;28;20029;-58
2022/06/08 07:27:36;;;;;;;2.25;1.20;;;;;;;;;;4991818;28;20117;-58
2022/06/08 07:30:14;;;;;;;2.05;1.20;;;;;;;;;;4992695;28;20085;-58
2022/06/08 07:33:21;;;;;;;;;;;;;;;;;;;;;
2022/06/08 07:36:09;;;;;;;8.48;1.73;;;;;;;;;;4992666;28;20117;-58
2022/06/08 07:42:32;;;;;;;2.70;1.55;;;;;;;;;;4996395;28;20570;-58
2022/06/08 07:44:53;;;;;;;;;;;;;;;;;;;;;
2022/06/08 07:47:25;;;;;;;6.30;2.10;;;;;;;;;;4951870;28;20035;-58
2022/06/08 07:50:11;;;;;;;2.47;1.10;;;;;;;;;;4978949;28;20177;-58
2022/06/08 07:56:10;;;;;;;2.28;1.30;;;;;;;;;;4989927;28;20026;-58
2022/06/08 07:59:05;;;;;;;2.72;1.20;;;;;;;;;;4992495;28;20142;-58
2022/06/08 08:01:57;;;;;;;5.07;1.75;;;;;;;;;;5017256;28;20452;-58
2022/06/08 08:04:59;;;;;;;;;;;;;;;;;;;;;
2022/06/08 08:07:47;;;;;;;2.50;1.27;;;;;;;;;;5017806;28;20109;-58
2022/06/08 08:10:19;;;;;;;3.08;1.60;;;;;;;;;;5038082;28;20030;-58
2022/06/08 08:13:15;;;;;;;5.43;1.58;;;;;;;;;;5019280;28;20018;-58
2022/06/08 08:16:05;;;;;;;6.47;1.50;;;;;;;;;;5016828;28;20034;-58
2022/06/08 08:19:03;;;;;;;2.33;1.10;;;;;;;;;;5016950;28;20026;-59
2022/06/08 08:21:41;;;;;;;5.53;1.38;;;;;;;;;;4990668;28;20033;-59
2022/06/08 08:24:14;;;;;;;2.22;1.33;;;;;;;;;;5016797;28;20044;-59
2022/06/08 08:27:01;;;;;;;1.30;0.70;;;;;;;;;;5027390;28;20124;-59
2022/06/08 08:38:36;;;;;;;5.30;1.23;;;;;;;;;;5016501;28;20044;-59
2022/06/08 08:44:27;;;;;;;1.85;1.13;;;;;;;;;;5016525;28;20068;-59
2022/06/08 08:47:21;;;;;;;4.13;1.35;;;;;;;;;;5001790;28;20095;-59
2022/06/08 08:50:22;;;;;;;;;;;;;;;;;;;;;
2022/06/08 08:56:19;;;;;;;3.67;1.17;;;;;;;;;;4987806;28;20034;-59
2022/06/08 09:08:46;;;;;;;7.35;1.50;;;;;;;;;;5024504;28;20029;-58
2022/06/08 09:11:31;;;;;;;6.20;1.63;;;;;;;;;;5044587;28;20410;-59
2022/06/08 09:14:09;;;;;;;1.30;0.70;;;;;;;;;;5039398;28;20097;-58
2022/06/08 09:16:51;;;;;;;3.60;1.27;;;;;;;;;;5056711;28;20077;-59
2022/06/08 09:19:43;;;;;;;;;;;;;;;;;;;;;
2022/06/08 09:22:46;;;;;;;4.05;1.40;;;;;;;;;;5053321;28;20434;-59
2022/06/08 09:25:35;;;;;;;3.53;1.40;;;;;;;;;;5056605;28;20044;-59
2022/06/08 09:28:30;;;;;;;;;;;;;;;;;;;;;
2022/06/08 09:34:05;;;;;;;2.25;1.05;;;;;;;;;;5056297;28;20087;-59
2022/06/08 09:37:07;;;;;;;;;;;;;;;;;;;;;
2022/06/08 09:40:03;;;;;;;4.70;1.02;;;;;;;;;;4977889;28;20034;-59
2022/06/08 09:42:50;;;;;;;4.82;1.27;;;;;;;;;;4992643;28;20496;-59
2022/06/08 09:45:39;;;;;;;3.90;1.10;;;;;;;;;;4991875;28;20465;-59
2022/06/08 09:54:42;;;;;;;2.90;1.15;;;;;;;;;;4913354;29;20040;-59
2022/06/08 09:58:00;;;;;;;;;;;;;;;;;;;;;
2022/06/08 10:00:36;;;;;;;2.25;0.70;;;;;;;;;;4955128;29;20034;-59
2022/06/08 10:03:11;;;;;;;2.15;0.75;;;;;;;;;;4954961;29;20047;-59
2022/06/08 10:05:53;;;;;;;;;;;;;;;;;;;;;
2022/06/08 10:08:33;;;;;;;2.15;0.80;;;;;;;;;;4993771;28;20431;-59
2022/06/08 10:15:09;;;;;;;7.15;1.10;;;;;;;;;;4988008;28;20050;-59
2022/06/08 10:18:13;;;;;;;2.03;0.50;;;;;;;;;;5055392;28;20036;-59
2022/06/08 10:20:52;;;;;;;2.28;1.10;;;;;;;;;;5053824;28;20091;-59
2022/06/08 10:29:55;;;;;;;3.97;0.68;;;;;;;;;;5056638;28;20045;-59
2022/06/08 10:32:42;;;;;;;1.50;0.73;;;;;;;;;;5056644;28;20356;-59
2022/06/08 10:35:29;;;;;;;3.15;0.63;;;;;;;;;;5054111;28;20065;-60
2022/06/08 10:44:50;;;;;;;1.23;0.70;;;;;;;;;;5007602;28;20059;-58
2022/06/08 10:47:57;;;;;;;0.70;0.30;;;;;;;;;;5035635;28;20378;-58
2022/06/08 10:50:52;;;;;;;1.90;1.05;;;;;;;;;;4975930;28;20396;-58
2022/06/08 10:56:41;;;;;;;4.10;0.63;;;;;;;;;;5050120;28;20063;-58
2022/06/08 10:59:46;;;;;;;5.13;0.77;;;;;;;;;;5053639;28;20435;-58
2022/06/08 11:02:34;;;;;;;1.25;0.43;;;;;;;;;;5023179;28;20068;-58
2022/06/08 11:05:41;;;;;;;1.80;0.65;;;;;;;;;;5053998;28;20051;-58
2022/06/08 11:11:55;;;;;;;3.13;0.68;;;;;;;;;;5053804;28;20532;-58
2022/06/08 11:17:57;;;;;;;1.15;0.35;;;;;;;;;;5050269;28;20071;-58
2022/06/08 11:20:47;;;;;;;1.23;0.60;;;;;;;;;;5039565;28;20120;-58
2022/06/08 11:23:24;;;;;;;1.67;0.50;;;;;;;;;;5029007;28;20483;-58
2022/06/08 11:28:57;;;;;;;0.60;0.25;;;;;;;;;;5057587;28;20510;-58
2022/06/08 11:34:28;;;;;;;0.82;0.30;;;;;;;;;;5058275;28;20041;-58
2022/06/08 11:37:32;;;;;;;2.15;0.60;;;;;;;;;;5039562;28;20079;-58
2022/06/08 11:40:35;;;;;;;;;;;;;;;;;;;;;
2022/06/08 11:43:27;;;;;;;1.85;0.60;;;;;;;;;;4969856;28;20053;-58
2022/06/08 11:46:29;;;;;;;1.67;0.55;;;;;;;;;;4987813;28;20035;-58
2022/06/08 11:49:11;;;;;;;2.70;0.88;;;;;;;;;;5003253;28;20027;-58
2022/06/08 11:51:55;;;;;;;1.88;0.90;;;;;;;;;;5031133;28;20036;-58
2022/06/08 11:57:46;;;;;;;1.67;0.75;;;;;;;;;;5003565;28;20077;-58
2022/06/08 12:00:34;;;;;;;3.78;0.98;;;;;;;;;;4968954;28;20408;-58
2022/06/08 12:06:56;;;;;;;;;;;;;;;;;;;;;
2022/06/08 12:12:38;;;;;;;;;;;;;;;;;;;;;
2022/06/08 12:18:42;;;;;;;;;;;;;;;;;;;;;
2022/06/08 12:21:27;;;;;;;2.60;0.75;;;;;;;;;;5019062;28;20391;-58
2022/06/08 12:24:17;;;;;;;0.63;0.38;;;;;;;;;;5036495;28;20459;-58
2022/06/08 12:26:52;;;;;;;0.83;0.40;;;;;;;;;;5037614;28;20083;-58
2022/06/08 12:32:54;;;;;;;1.15;0.40;;;;;;;;;;5036661;28;20033;-58
2022/06/08 12:35:52;;;;;;;0.75;0.40;;;;;;;;;;5036871;28;20459;-58
2022/06/08 12:38:38;;;;;;;2.35;0.65;;;;;;;;;;4995364;28;20116;-58
2022/06/08 12:41:39;;;;;;;2.58;0.85;;;;;;;;;;4991878;28;20100;-58
2022/06/08 12:44:20;;;;;;;3.17;0.70;;;;;;;;;;4995553;28;20038;-58
2022/06/08 12:47:04;;;;;;;4.93;1.73;;;;;;;;;;4995427;28;20027;-58
2022/06/08 12:50:17;;;;;;;;;;;;;;;;;;;;;
2022/06/08 12:53:04;;;;;;;;;;;;;;;;;;;;;
2022/06/08 12:56:10;;;;;;;;;;;;;;;;;;;;;
2022/06/08 12:58:48;;;;;;;2.90;0.57;;;;;;;;;;5019833;28;20132;-58
2022/06/08 13:01:32;;;;;;;;;;;;;;;;;;;;;
2022/06/08 13:07:58;;;;;;;1.45;0.55;;;;;;;;;;5022204;28;20037;-57
2022/06/08 13:10:46;;;;;;;;;;;;;;;;;;;;;
2022/06/08 13:13:36;;;;;;;1.83;0.73;;;;;;;;;;5035851;28;20451;-58
2022/06/08 13:16:30;;;;;;;2.22;1.00;;;;;;;;;;5034183;28;20140;-58
2022/06/08 13:19:26;;;;;;;1.25;0.60;;;;;;;;;;5036108;28;20030;-58
2022/06/08 13:22:11;;;;;;;2.60;0.70;;;;;;;;;;5035487;28;20108;-58
2022/06/08 13:24:52;;;;;;;2.15;0.70;;;;;;;;;;5034758;28;20025;-58
2022/06/08 13:31:04;;;;;;;1.02;0.40;;;;;;;;;;5035081;28;20491;-58
2022/06/08 13:42:29;;;;;;;1.73;0.40;;;;;;;;;;5035106;28;20477;-58
2022/06/08 13:48:12;;;;;;;1.17;0.60;;;;;;;;;;5052701;28;20080;-58
2022/06/08 13:51:25;;;;;;;2.53;0.63;;;;;;;;;;5053211;28;20374;-58
2022/06/08 13:54:00;;;;;;;0.80;0.30;;;;;;;;;;5049382;28;20395;-58
2022/06/08 13:59:29;;;;;;;0.98;0.52;;;;;;;;;;5030376;28;20052;-58
2022/06/08 14:14:41;;;;;;;2.40;1.00;;;;;;;;;;5039593;28;20336;-58
2022/06/08 14:17:37;;;;;;;3.30;1.02;;;;;;;;;;5019495;28;20034;-58
2022/06/08 14:20:21;;;;;;;1.30;0.70;;;;;;;;;;4970986;28;20047;-58
2022/06/08 14:23:00;;;;;;;1.63;0.68;;;;;;;;;;5022833;28;20089;-58
2022/06/08 14:31:56;;;;;;;0.77;0.35;;;;;;;;;;5017846;28;20033;-58
2022/06/08 14:34:36;;;;;;;1.02;0.38;;;;;;;;;;5043585;28;20085;-58
2022/06/08 14:37:33;;;;;;;1.95;0.75;;;;;;;;;;5021249;28;20603;-58
2022/06/08 14:40:26;;;;;;;;;;;;;;;;;;;;;
2022/06/08 14:43:14;;;;;;;;;;;;;;;;;;;;;
2022/06/08 14:49:51;;;;;;;1.33;0.47;;;;;;;;;;4904956;29;20165;-58
2022/06/08 14:52:24;;;;;;;2.05;0.80;;;;;;;;;;4904310;29;20072;-58
2022/06/08 14:56:23;;;;;;;2.03;0.82;;;;;;;;;;4906895;29;20167;-58
2022/06/08 15:13:48;;;;;;;2.85;0.95;;;;;;;;;;5015305;28;20057;-58
2022/06/08 15:16:42;;;;;;;4.57;1.25;;;;;;;;;;5025009;28;20030;-57
2022/06/08 15:19:35;;;;;;;3.00;1.45;;;;;;;;;;5007936;28;20441;-58
2022/06/08 15:22:14;;;;;;;2.08;0.90;;;;;;;;;;5026213;28;20030;-58
2022/06/08 15:24:44;;;;;;;2.85;1.13;;;;;;;;;;5025160;28;20026;-57
2022/06/08 15:27:40;;;;;;;;;;;;;;;;;;;;;
2022/06/08 15:30:31;;;;;;;3.50;1.63;;;;;;;;;;5022608;28;20094;-58
2022/06/08 15:33:17;;;;;;;1.30;0.68;;;;;;;;;;5006827;28;20057;-59
2022/06/08 15:38:57;;;;;;;4.03;0.95;;;;;;;;;;5021880;28;20026;-58
2022/06/08 15:41:25;;;;;;;5.95;1.35;;;;;;;;;;5023448;28;20077;-58
2022/06/08 15:44:19;;;;;;;4.50;1.90;;;;;;;;;;5005580;28;20026;-58
2022/06/08 15:50:37;;;;;;;3.78;1.30;;;;;;;;;;5020236;28;20034;-58
2022/06/08 15:53:27;;;;;;;3.58;1.25;;;;;;;;;;5005378;28;20034;-58
2022/06/08 15:56:08;;;;;;;5.05;1.75;;;;;;;;;;5018497;28;20088;-59
2022/06/08 16:02:07;;;;;;;1.83;0.73;;;;;;;;;;5046461;28;20097;-59
2022/06/08 16:05:02;;;;;;;1.73;0.90;;;;;;;;;;5047398;28;20026;-59
2022/06/08 16:07:47;;;;;;;3.72;0.93;;;;;;;;;;5047438;28;20068;-58
2022/06/08 16:10:45;;;;;;;3.38;1.55;;;;;;;;;;5042752;28;20383;-58
2022/06/08 16:13:12;;;;;;;2.20;1.13;;;;;;;;;;5037167;28;20041;-59
2022/06/08 16:15:42;;;;;;;4.65;1.27;;;;;;;;;;5018914;28;20116;-59
2022/06/08 16:18:40;;;;;;;;;;;;;;;;;;;;;
2022/06/08 16:24:27;;;;;;;1.40;0.63;;;;;;;;;;5037025;28;20042;-58
2022/06/08 16:27:34;;;;;;;3.08;0.90;;;;;;;;;;5052097;28;20128;-59
2022/06/08 16:30:21;;;;;;;2.45;1.23;;;;;;;;;;5049786;28;20048;-58
2022/06/08 16:33:11;;;;;;;3.20;1.33;;;;;;;;;;5021713;28;20112;-58
2022/06/08 16:35:44;;;;;;;3.53;1.17;;;;;;;;;;5034427;28;20040;-58
2022/06/08 16:38:23;;;;;;;1.83;1.15;;;;;;;;;;5035077;28;20103;-58
2022/06/08 16:41:10;;;;;;;3.05;1.00;;;;;;;;;;5051556;28;20033;-58
2022/06/08 16:43:54;;;;;;;4.05;1.83;;;;;;;;;;5021959;28;20029;-58
2022/06/08 16:46:48;;;;;;;5.18;1.35;;;;;;;;;;5036566;28;20033;-58
2022/06/08 16:49:50;;;;;;;2.60;1.25;;;;;;;;;;5036499;28;20439;-58
2022/06/08 16:52:40;;;;;;;1.88;1.08;;;;;;;;;;5051908;28;20410;-58
2022/06/08 16:55:18;;;;;;;1.88;0.93;;;;;;;;;;5051696;28;20436;-58
2022/06/08 17:00:43;;;;;;;2.70;1.23;;;;;;;;;;5016978;28;20099;-58
2022/06/08 17:03:44;;;;;;;1.85;1.08;;;;;;;;;;5017067;28;20022;-58
2022/06/08 17:09:18;;;;;;;4.72;1.50;;;;;;;;;;5009028;28;19913;-58
2022/06/08 17:12:11;;;;;;;3.85;1.13;;;;;;;;;;5031678;28;20452;-58
2022/06/08 17:15:00;;;;;;;;;;;;;;;;;;;;;
2022/06/08 17:17:42;;;;;;;1.10;0.65;;;;;;;;;;5017256;28;20431;-58
2022/06/08 17:20:25;;;;;;;4.35;1.05;;;;;;;;;;5003227;28;20476;-58
2022/06/08 17:23:25;;;;;;;2.42;1.08;;;;;;;;;;5016171;28;20511;-59
2022/06/08 17:29:09;;;;;;;9.07;1.75;;;;;;;;;;4997764;28;20036;-58
2022/06/08 17:34:44;;;;;;;2.05;0.90;;;;;;;;;;5000930;28;20104;-59
2022/06/08 17:37:13;;;;;;;6.45;1.63;;;;;;;;;;4997507;28;20036;-59
2022/06/08 17:39:50;;;;;;;2.30;1.13;;;;;;;;;;5015771;28;20124;-59
2022/06/08 17:42:58;;;;;;;1.83;0.52;;;;;;;;;;5015317;28;20379;-59
2022/06/08 17:48:41;;;;;;;3.17;1.20;;;;;;;;;;4999139;28;20034;-58
2022/06/08 17:51:33;;;;;;;1.77;0.82;;;;;;;;;;5015065;28;20022;-58
2022/06/08 17:54:33;;;;;;;1.30;0.70;;;;;;;;;;5014651;28;20029;-58
2022/06/08 18:03:37;;;;;;;3.63;1.33;;;;;;;;;;4954666;29;20061;-58
2022/06/08 18:06:43;;;;;;;2.08;0.93;;;;;;;;;;5030560;28;20045;-58
2022/06/08 18:09:57;;;;;;;2.15;0.85;;;;;;;;;;5004202;28;20046;-58
2022/06/08 18:16:03;;;;;;;2.78;1.08;;;;;;;;;;4993414;28;20495;-58
2022/06/08 18:18:42;;;;;;;2.75;1.33;;;;;;;;;;5013779;28;20549;-58
2022/06/08 18:21:08;;;;;;;4.00;1.25;;;;;;;;;;5013438;28;20033;-58
2022/06/08 18:23:52;;;;;;;2.10;0.98;;;;;;;;;;4992870;28;20049;-59
2022/06/08 18:26:26;;;;;;;3.88;1.17;;;;;;;;;;5012479;28;20022;-58
2022/06/08 18:29:01;;;;;;;2.22;1.00;;;;;;;;;;5013163;28;20519;-59
2022/06/08 18:32:00;;;;;;;2.22;1.00;;;;;;;;;;5013308;28;20030;-59
2022/06/08 18:34:58;;;;;;;3.75;1.05;;;;;;;;;;5012919;28;20026;-58
2022/06/08 18:37:55;;;;;;;2.10;0.82;;;;;;;;;;5012443;28;20402;-58
2022/06/08 18:41:06;;;;;;;;;;;;;;;;;;;;;
2022/06/08 18:44:03;;;;;;;;;;;;;;;;;;;;;
2022/06/08 18:52:59;;;;;;;;;;;;;;;;;;;;;
2022/06/08 18:55:48;;;;;;;2.65;1.17;;;;;;;;;;4974214;28;20483;-59
2022/06/08 18:58:48;;;;;;;3.65;1.15;;;;;;;;;;4952443;28;20076;-59
2022/06/08 19:01:23;;;;;;;5.00;1.50;;;;;;;;;;4928977;29;20589;-58
2022/06/08 19:04:12;;;;;;;3.80;1.40;;;;;;;;;;4935888;29;20028;-58
2022/06/08 19:06:45;;;;;;;2.55;1.10;;;;;;;;;;4937596;29;20051;-58
2022/06/08 19:09:43;;;;;;;2.53;1.20;;;;;;;;;;4944475;29;20040;-59
2022/06/08 19:12:25;;;;;;;3.85;1.13;;;;;;;;;;4972594;28;20094;-59
2022/06/08 19:15:16;;;;;;;2.53;1.10;;;;;;;;;;4992639;28;20392;-60
2022/06/08 19:21:01;;;;;;;1.83;0.93;;;;;;;;;;4993211;28;20058;-59
2022/06/08 19:23:56;;;;;;;4.85;1.90;;;;;;;;;;4975407;28;20030;-60
2022/06/08 19:26:43;;;;;;;3.33;1.63;;;;;;;;;;4993257;28;20042;-58
2022/06/08 19:29:53;;;;;;;2.00;1.23;;;;;;;;;;5011565;28;20033;-58
2022/06/08 19:35:46;;;;;;;2.85;1.10;;;;;;;;;;4996218;28;20029;-59
2022/06/08 19:38:48;;;;;;;3.17;1.50;;;;;;;;;;5042792;28;20033;-58
2022/06/08 19:41:57;;;;;;;;;;;;;;;;;;;;;
2022/06/08 19:44:33;;;;;;;2.67;1.48;;;;;;;;;;4931944;28;20046;-58
2022/06/08 19:47:24;;;;;;;3.25;1.15;;;;;;;;;;4979836;28;20062;-58
2022/06/08 19:50:12;;;;;;;3.80;1.40;;;;;;;;;;4952225;28;20038;-58
2022/06/08 19:55:41;;;;;;;2.58;1.45;;;;;;;;;;5026207;28;20026;-58
2022/06/08 19:58:43;;;;;;;2.63;1.60;;;;;;;;;;5037874;28;20029;-58
2022/06/08 20:07:44;;;;;;;2.88;1.38;;;;;;;;;;5037011;28;20068;-58
2022/06/08 20:10:38;;;;;;;2.70;1.52;;;;;;;;;;5018952;28;20414;-58
2022/06/08 20:13:24;;;;;;;3.28;2.03;;;;;;;;;;5035998;28;20044;-58
2022/06/08 20:22:24;;;;;;;2.45;1.52;;;;;;;;;;5036441;28;20049;-58
2022/06/08 20:25:13;;;;;;;1.92;1.33;;;;;;;;;;5037334;28;20034;-58
2022/06/08 20:27:44;;;;;;;2.10;1.40;;;;;;;;;;5036579;28;20068;-58
2022/06/08 20:33:24;;;;;;;4.57;1.20;;;;;;;;;;5022011;28;20545;-58
2022/06/08 20:36:09;;;;;;;1.52;0.82;;;;;;;;;;5028790;28;20391;-58
2022/06/08 20:48:17;;;;;;;2.47;0.70;;;;;;;;;;4918247;29;20471;-58
2022/06/08 20:54:28;;;;;;;;;;;;;;;;;;;;;
2022/06/08 21:00:18;;;;;;;1.75;0.88;;;;;;;;;;4974486;28;20552;-59
2022/06/08 21:03:10;;;;;;;1.45;0.68;;;;;;;;;;4986932;28;20093;-59
2022/06/08 21:05:50;;;;;;;2.97;0.95;;;;;;;;;;5001547;28;20047;-59
2022/06/08 21:08:35;;;;;;;1.27;0.55;;;;;;;;;;5048447;28;20036;-58
2022/06/08 21:11:17;;;;;;;0.98;0.50;;;;;;;;;;5048520;28;20104;-58
2022/06/08 21:17:27;;;;;;;0.88;0.40;;;;;;;;;;5006908;28;20548;-58
2022/06/08 21:20:19;;;;;;;1.42;0.70;;;;;;;;;;5013636;28;20044;-58
2022/06/08 21:25:35;;;;;;;1.38;0.80;;;;;;;;;;5006909;28;20038;-58
2022/06/08 21:28:25;;;;;;;1.55;0.80;;;;;;;;;;5006775;28;20062;-58
2022/06/08 21:33:57;;;;;;;6.57;0.93;;;;;;;;;;4956415;29;20031;-58
2022/06/08 21:36:32;;;;;;;1.55;0.50;;;;;;;;;;4968881;29;20031;-58
2022/06/08 21:39:40;;;;;;;;;;;;;;;;;;;;;
2022/06/08 21:42:08;;;;;;;1.25;0.52;;;;;;;;;;5016021;28;20072;-59
2022/06/08 21:44:51;;;;;;;2.15;0.70;;;;;;;;;;5047004;28;20037;-58
2022/06/08 21:50:20;;;;;;;1.20;0.50;;;;;;;;;;5048168;28;20055;-58
2022/06/08 21:53:00;;;;;;;1.30;0.50;;;;;;;;;;5049002;28;20454;-58
2022/06/08 21:55:36;;;;;;;1.70;0.57;;;;;;;;;;5048454;28;20017;-58
2022/06/08 21:58:19;;;;;;;1.63;0.77;;;;;;;;;;5047471;28;20030;-58
2022/06/08 22:13:01;;;;;;;0.93;0.30;;;;;;;;;;5014328;28;20134;-58
2022/06/08 22:15:45;;;;;;;1.05;0.50;;;;;;;;;;5026529;28;20069;-58
2022/06/08 22:18:25;;;;;;;1.30;0.50;;;;;;;;;;5027822;28;20022;-58
2022/06/08 22:27:29;;;;;;;0.80;0.40;;;;;;;;;;4884326;29;20052;-58
2022/06/08 22:29:58;;;;;;;2.00;0.73;;;;;;;;;;5020322;28;20038;-58
2022/06/08 22:33:04;;;;;;;;;;;;;;;;;;;;;
2022/06/08 22:39:03;;;;;;;2.65;0.90;;;;;;;;;;4947606;29;20062;-59
2022/06/08 22:41:48;;;;;;;1.25;0.52;;;;;;;;;;4947142;29;20139;-58
2022/06/08 22:44:56;;;;;;;0.90;0.47;;;;;;;;;;4947791;29;20051;-58
2022/06/08 22:50:24;;;;;;;1.88;0.77;;;;;;;;;;4928834;29;20046;-58
2022/06/08 22:56:10;;;;;;;1.23;0.50;;;;;;;;;;4948109;28;20043;-58
2022/06/08 23:04:33;;;;;;;1.98;0.63;;;;;;;;;;4991344;28;20058;-58
2022/06/08 23:07:34;;;;;;;1.75;0.90;;;;;;;;;;5004930;28;20474;-58
2022/06/08 23:10:03;;;;;;;0.80;0.45;;;;;;;;;;4927244;29;20048;-58
2022/06/08 23:12:45;;;;;;;1.10;0.45;;;;;;;;;;4928204;29;20075;-58
2022/06/08 23:24:50;;;;;;;1.73;0.80;;;;;;;;;;4966278;28;20110;-58
2022/06/08 23:37:04;;;;;;;1.67;0.50;;;;;;;;;;4969996;28;20069;-59
2022/06/08 23:39:30;;;;;;;1.20;0.60;;;;;;;;;;4985667;28;20039;-58
2022/06/08 23:42:25;;;;;;;;;;;;;;;;;;;;;
2022/06/08 23:45:26;;;;;;;0.95;0.55;;;;;;;;;;4985131;28;20117;-58
2022/06/08 23:48:02;;;;;;;1.08;0.50;;;;;;;;;;4984330;28;20042;-58
2022/06/08 23:54:12;;;;;;;1.23;0.65;;;;;;;;;;4995881;28;20037;-58
2022/06/08 23:56:56;;;;;;;1.08;0.32;;;;;;;;;;5046446;28;20113;-58
2022/06/08 23:59:35;;;;;;;1.05;0.50;;;;;;;;;;5046799;28;20036;-58
